Time,TemperatureF,DewpointF,PressureIn,WindDirection,WindDirectionDegrees,WindSpeedMPH,WindSpeedGustMPH,Humidity,HourlyPrecipIn,Conditions,Clouds,dailyrainin,SoftwareType,DateUTC
2013-01-17 00:02:00,32.6,7.9,30.40,NNW,327,5.0,8.0,35,0.00,,,0.00,WUHU216DAVISVP2,2013-01-17 08:02:00,
2013-01-17 00:07:00,32.6,8.6,30.40,NW,317,2.0,8.0,36,0.00,,,0.00,WUHU216DAVISVP2,2013-01-17 08:07:00,
2013-01-17 00:12:00,32.8,8.1,30.40,NW,314,3.0,8.0,35,0.00,,,0.00,WUHU216DAVISVP2,2013-01-17 08:12:00,
2013-01-17 00:17:00,32.3,7.7,30.40,NW,314,4.0,8.0,35,0.00,,,0.00,WUHU216DAVISVP2,2013-01-17 08:17:00,
2013-01-17 00:22:00,32.3,8.1,30.40,NW,314,4.0,7.0,36,0.00,,,0.00,WUHU216DAVISVP2,2013-01-17 08:22:00,
2013-01-17 00:28:00,33.0,8.1,30.40,NNW,329,5.0,7.0,35,0.00,,,0.00,WUHU216DAVISVP2,2013-01-17 08:28:00,
2013-01-17 00:33:00,32.4,6.2,30.40,NNW,327,5.0,7.0,33,0.00,,,0.00,WUHU216DAVISVP2,2013-01-17 08:33:00,
2013-01-17 00:38:00,31.3,7.2,30.40,NW,323,5.0,7.0,36,0.00,,,0.00,WUHU216DAVISVP2,2013-01-17 08:38:00,
2013-01-17 00:43:00,31.5,7.4,30.40,NW,323,4.0,7.0,36,0.00,,,0.00,WUHU216DAVISVP2,2013-01-17 08:43:00,
2013-01-17 00:48:00,31.9,7.9,30.40,NW,323,6.0,7.0,36,0.00,,,0.00,WUHU216DAVISVP2,2013-01-17 08:48:00,
2013-01-17 00:54:00,32.3,8.3,30.40,NW,325,4.0,8.0,36,0.00,,,0.00,WUHU216DAVISVP2,2013-01-17 08:54:00,
2013-01-17 00:59:00,32.4,8.4,30.40,NW,323,4.0,8.0,36,0.00,,,0.00,WUHU216DAVISVP2,2013-01-17 08:59:00,
2013-01-17 01:04:00,31.5,6.7,30.40,NW,323,2.0,8.0,35,0.00,,,0.00,WUHU216DAVISVP2,2013-01-17 09:04:00,
2013-01-17 01:09:00,30.8,6.7,30.40,NW,323,2.0,8.0,36,0.00,,,0.00,WUHU216DAVISVP2,2013-01-17 09:09:00,
2013-01-17 01:14:00,29.5,5.0,30.41,NW,323,3.0,6.0,35,0.00,,,0.00,WUHU216DAVISVP2,2013-01-17 09:14:00,
2013-01-17 01:19:00,30.2,8.0,30.41,NW,310,5.0,6.0,39,0.00,,,0.00,WUHU216DAVISVP2,2013-01-17 09:19:00,
2013-01-17 01:24:00,30.8,6.1,30.40,NNW,332,2.0,6.0,35,0.00,,,0.00,WUHU216DAVISVP2,2013-01-17 09:24:00,
2013-01-17 01:29:00,30.1,7.3,30.40,NNW,332,2.0,6.0,38,0.00,,,0.00,WUHU216DAVISVP2,2013-01-17 09:29:00,
2013-01-17 01:34:00,31.2,8.3,30.41,NNW,332,3.0,6.0,38,0.00,,,0.00,WUHU216DAVISVP2,2013-01-17 09:34:00,
2013-01-17 01:39:00,30.6,6.6,30.41,NNW,332,5.0,5.0,36,0.00,,,0.00,WUHU216DAVISVP2,2013-01-17 09:39:00,
2013-01-17 01:45:00,30.8,6.1,30.41,NNW,332,3.0,6.0,35,0.00,,,0.00,WUHU216DAVISVP2,2013-01-17 09:45:00,
2013-01-17 01:50:00,29.7,7.0,30.40,NNW,332,3.0,6.0,38,0.00,,,0.00,WUHU216DAVISVP2,2013-01-17 09:50:00,
2013-01-17 01:55:00,29.7,7.0,30.41,NNW,331,2.0,6.0,38,0.00,,,0.00,WUHU216DAVISVP2,2013-01-17 09:55:00,
2013-01-17 02:00:00,28.5,5.9,30.41,NNW,331,3.0,6.0,38,0.00,,,0.00,WUHU216DAVISVP2,2013-01-17 10:00:00,
2013-01-17 02:05:00,29.1,8.1,30.41,NNW,331,4.0,6.0,41,0.00,,,0.00,WUHU216DAVISVP2,2013-01-17 10:05:00,
2013-01-17 02:10:00,31.3,8.4,30.41,NNW,329,4.0,6.0,38,0.00,,,0.00,WUHU216DAVISVP2,2013-01-17 10:10:00,
2013-01-17 02:15:00,31.4,7.3,30.40,NW,325,0.0,7.0,36,0.00,,,0.00,WUHU216DAVISVP2,2013-01-17 10:15:00,
2013-01-17 02:20:00,28.5,4.1,30.40,NW,325,4.0,7.0,35,0.00,,,0.00,WUHU216DAVISVP2,2013-01-17 10:20:00,
2013-01-17 02:26:00,29.1,7.6,30.40,NW,325,4.0,7.0,40,0.00,,,0.00,WUHU216DAVISVP2,2013-01-17 10:26:00,
2013-01-17 02:31:00,30.0,6.6,30.41,NW,321,1.0,6.0,37,0.00,,,0.00,WUHU216DAVISVP2,2013-01-17 10:31:00,
2013-01-17 02:36:00,29.1,5.2,30.41,NW,321,4.0,5.0,36,0.00,,,0.00,WUHU216DAVISVP2,2013-01-17 10:36:00,
2013-01-17 02:41:00,29.6,7.5,30.40,NW,321,3.0,5.0,39,0.00,,,0.00,WUHU216DAVISVP2,2013-01-17 10:41:00,
2013-01-17 02:46:00,31.0,8.1,30.40,NW,321,0.0,5.0,38,0.00,,,0.00,WUHU216DAVISVP2,2013-01-17 10:46:00,
2013-01-17 02:51:00,30.7,6.7,30.40,NW,321,2.0,5.0,36,0.00,,,0.00,WUHU216DAVISVP2,2013-01-17 10:51:00,
2013-01-17 02:56:00,30.2,6.2,30.40,NW,321,2.0,4.0,36,0.00,,,0.00,WUHU216DAVISVP2,2013-01-17 10:56:00,
2013-01-17 03:01:00,30.2,6.8,30.40,NW,321,6.0,7.0,37,0.00,,,0.00,WUHU216DAVISVP2,2013-01-17 11:01:00,
2013-01-17 03:06:00,30.2,7.0,30.40,NNW,338,5.0,9.0,37,0.00,,,0.00,WUHU216DAVISVP2,2013-01-17 11:06:00,
2013-01-17 03:12:00,30.1,7.5,30.40,NNW,337,3.0,9.0,38,0.00,,,0.00,WUHU216DAVISVP2,2013-01-17 11:12:00,
2013-01-17 03:18:00,30.9,7.4,30.40,NNW,337,3.0,9.0,37,0.00,,,0.00,WUHU216DAVISVP2,2013-01-17 11:18:00,
2013-01-17 03:23:00,30.9,6.8,30.39,NNW,334,3.0,9.0,36,0.00,,,0.00,WUHU216DAVISVP2,2013-01-17 11:23:00,
2013-01-17 03:28:00,30.3,6.3,30.39,NNW,333,5.0,6.0,36,0.00,,,0.00,WUHU216DAVISVP2,2013-01-17 11:28:00,
2013-01-17 03:34:00,29.4,6.7,30.39,NW,320,3.0,7.0,38,0.00,,,0.00,WUHU216DAVISVP2,2013-01-17 11:34:00,
2013-01-17 03:39:00,30.2,7.4,30.39,WNW,296,5.0,7.0,38,0.00,,,0.00,WUHU216DAVISVP2,2013-01-17 11:39:00,
2013-01-17 03:44:00,31.2,7.7,30.39,NNW,333,3.0,7.0,37,0.00,,,0.00,WUHU216DAVISVP2,2013-01-17 11:44:00,
2013-01-17 03:49:00,31.4,7.3,30.39,NNW,333,5.0,7.0,36,0.00,,,0.00,WUHU216DAVISVP2,2013-01-17 11:49:00,
2013-01-17 03:54:00,31.0,6.5,30.40,NNW,328,5.0,7.0,35,0.00,,,0.00,WUHU216DAVISVP2,2013-01-17 11:54:00,
2013-01-17 03:59:00,30.2,7.0,30.39,NW,315,4.0,7.0,37,0.00,,,0.00,WUHU216DAVISVP2,2013-01-17 11:59:00,
2013-01-17 04:04:00,30.1,7.5,30.40,NW,307,3.0,7.0,38,0.00,,,0.00,WUHU216DAVISVP2,2013-01-17 12:04:00,
2013-01-17 04:10:00,29.9,6.1,30.39,NW,307,2.0,7.0,36,0.00,,,0.00,WUHU216DAVISVP2,2013-01-17 12:10:00,
2013-01-17 04:16:00,28.4,5.2,30.39,NW,307,5.0,6.0,37,0.00,,,0.00,WUHU216DAVISVP2,2013-01-17 12:16:00,
2013-01-17 04:21:00,27.0,5.1,30.39,NW,307,3.0,5.0,39,0.00,,,0.00,WUHU216DAVISVP2,2013-01-17 12:21:00,
2013-01-17 04:26:00,26.0,4.8,30.40,NW,307,3.0,5.0,40,0.00,,,0.00,WUHU216DAVISVP2,2013-01-17 12:26:00,
2013-01-17 04:31:00,26.5,6.3,30.39,WNW,298,4.0,5.0,42,0.00,,,0.00,WUHU216DAVISVP2,2013-01-17 12:31:00,
2013-01-17 04:36:00,27.6,6.8,30.40,West,270,2.0,6.0,41,0.00,,,0.00,WUHU216DAVISVP2,2013-01-17 12:36:00,
2013-01-17 04:41:00,27.6,6.8,30.39,WNW,300,5.0,6.0,41,0.00,,,0.00,WUHU216DAVISVP2,2013-01-17 12:41:00,
2013-01-17 04:46:00,29.2,7.1,30.39,NW,306,5.0,6.0,39,0.00,,,0.00,WUHU216DAVISVP2,2013-01-17 12:46:00,
2013-01-17 04:51:00,29.9,7.1,30.39,NW,321,6.0,7.0,38,0.00,,,0.00,WUHU216DAVISVP2,2013-01-17 12:51:00,
2013-01-17 04:57:00,30.1,6.1,30.40,NW,317,4.0,8.0,36,0.00,,,0.00,WUHU216DAVISVP2,2013-01-17 12:57:00,
2013-01-17 05:02:00,29.6,6.3,30.39,NW,318,5.0,8.0,37,0.00,,,0.00,WUHU216DAVISVP2,2013-01-17 13:02:00,
2013-01-17 05:08:00,29.4,6.9,30.39,WNW,299,4.0,8.0,38,0.00,,,0.00,WUHU216DAVISVP2,2013-01-17 13:08:00,
2013-01-17 05:13:00,30.4,7.2,30.39,WNW,296,2.0,8.0,37,0.00,,,0.00,WUHU216DAVISVP2,2013-01-17 13:13:00,
2013-01-17 05:18:00,30.7,7.5,30.39,WNW,296,3.0,6.0,37,0.00,,,0.00,WUHU216DAVISVP2,2013-01-17 13:18:00,
2013-01-17 05:23:00,30.7,6.2,30.39,NW,307,6.0,7.0,35,0.00,,,0.00,WUHU216DAVISVP2,2013-01-17 13:23:00,
2013-01-17 05:28:00,31.3,6.6,30.39,NW,317,4.0,8.0,35,0.00,,,0.00,WUHU216DAVISVP2,2013-01-17 13:28:00,
2013-01-17 05:33:00,31.0,6.3,30.39,NW,317,8.0,8.0,35,0.00,,,0.00,WUHU216DAVISVP2,2013-01-17 13:33:00,
2013-01-17 05:38:00,30.6,5.9,30.39,NNW,330,8.0,9.0,35,0.00,,,0.00,WUHU216DAVISVP2,2013-01-17 13:38:00,
2013-01-17 05:44:00,32.0,7.2,30.39,NNW,335,9.0,10.0,35,0.00,,,0.00,WUHU216DAVISVP2,2013-01-17 13:44:00,
2013-01-17 05:49:00,33.5,7.2,30.39,NNW,340,9.0,11.0,33,0.00,,,0.00,WUHU216DAVISVP2,2013-01-17 13:49:00,
2013-01-17 05:54:00,32.4,5.6,30.39,NNW,336,10.0,11.0,32,0.00,,,0.00,WUHU216DAVISVP2,2013-01-17 13:54:00,
2013-01-17 05:59:00,30.6,5.3,30.39,NNW,329,7.0,11.0,34,0.00,,,0.00,WUHU216DAVISVP2,2013-01-17 13:59:00,
2013-01-17 06:04:00,30.6,6.6,30.39,NNW,331,7.0,11.0,36,0.00,,,0.00,WUHU216DAVISVP2,2013-01-17 14:04:00,
2013-01-17 06:09:00,31.2,6.7,30.39,NNW,329,7.0,10.0,35,0.00,,,0.00,WUHU216DAVISVP2,2013-01-17 14:09:00,
2013-01-17 06:14:00,31.1,6.6,30.39,NNW,335,7.0,10.0,35,0.00,,,0.00,WUHU216DAVISVP2,2013-01-17 14:14:00,
2013-01-17 06:19:00,31.8,6.6,30.40,NNW,333,7.0,9.0,34,0.00,,,0.00,WUHU216DAVISVP2,2013-01-17 14:19:00,
2013-01-17 06:25:00,30.6,5.5,30.40,WNW,300,7.0,9.0,34,0.00,,,0.00,WUHU216DAVISVP2,2013-01-17 14:25:00,
2013-01-17 06:30:00,31.0,6.5,30.40,NW,322,10.0,10.0,35,0.00,,,0.00,WUHU216DAVISVP2,2013-01-17 14:30:00,
2013-01-17 06:35:00,32.2,6.9,30.40,NNW,348,11.0,11.0,34,0.00,,,0.00,WUHU216DAVISVP2,2013-01-17 14:35:00,
2013-01-17 06:40:00,33.2,6.5,30.40,NW,318,8.0,13.0,32,0.00,,,0.00,WUHU216DAVISVP2,2013-01-17 14:40:00,
2013-01-17 06:45:00,32.3,5.7,30.40,NW,308,6.0,13.0,32,0.00,,,0.00,WUHU216DAVISVP2,2013-01-17 14:45:00,
2013-01-17 06:50:00,33.2,7.2,30.40,NNW,336,12.0,13.0,33,0.00,,,0.00,WUHU216DAVISVP2,2013-01-17 14:50:00,
2013-01-17 06:55:00,33.3,5.1,30.40,NNW,331,7.0,14.0,30,0.00,,,0.00,WUHU216DAVISVP2,2013-01-17 14:55:00,
2013-01-17 07:00:00,31.2,5.4,30.40,NW,315,6.0,14.0,33,0.00,,,0.00,WUHU216DAVISVP2,2013-01-17 15:00:00,
2013-01-17 07:06:00,31.5,5.4,30.40,NW,319,6.0,14.0,33,0.00,,,0.00,WUHU216DAVISVP2,2013-01-17 15:06:00,
2013-01-17 07:11:00,31.6,5.5,30.40,NNW,336,7.0,12.0,33,0.00,,,0.00,WUHU216DAVISVP2,2013-01-17 15:11:00,
2013-01-17 07:16:00,31.2,5.2,30.41,NNW,337,2.0,9.0,33,0.00,,,0.00,WUHU216DAVISVP2,2013-01-17 15:16:00,
2013-01-17 07:21:00,30.5,5.2,30.41,NNW,334,5.0,8.0,34,0.00,,,0.00,WUHU216DAVISVP2,2013-01-17 15:21:00,
2013-01-17 07:27:00,30.5,5.2,30.41,West,267,4.0,8.0,34,0.00,,,0.00,WUHU216DAVISVP2,2013-01-17 15:27:00,
2013-01-17 07:32:00,30.6,5.9,30.41,West,263,3.0,7.0,35,0.00,,,0.00,WUHU216DAVISVP2,2013-01-17 15:32:00,
2013-01-17 07:37:00,31.2,5.8,30.42,West,263,2.0,7.0,34,0.00,,,0.00,WUHU216DAVISVP2,2013-01-17 15:37:00,
2013-01-17 07:42:00,32.3,6.2,30.42,West,263,4.0,6.0,33,0.00,,,0.00,WUHU216DAVISVP2,2013-01-17 15:42:00,
2013-01-17 07:47:00,33.0,6.8,30.42,West,263,4.0,5.0,33,0.00,,,0.00,WUHU216DAVISVP2,2013-01-17 15:47:00,
2013-01-17 07:52:00,33.8,6.8,30.42,West,263,2.0,5.0,32,0.00,,,0.00,WUHU216DAVISVP2,2013-01-17 15:52:00,
2013-01-17 07:58:00,35.3,6.7,30.42,West,263,2.0,5.0,30,0.00,,,0.00,WUHU216DAVISVP2,2013-01-17 15:58:00,
2013-01-17 08:03:00,36.6,7.1,30.41,West,263,2.0,5.0,29,0.00,,,0.00,WUHU216DAVISVP2,2013-01-17 16:03:00,
2013-01-17 08:08:00,37.2,6.9,30.41,West,263,1.0,3.0,28,0.00,,,0.00,WUHU216DAVISVP2,2013-01-17 16:08:00,
2013-01-17 08:13:00,37.9,7.5,30.42,West,262,2.0,3.0,28,0.00,,,0.00,WUHU216DAVISVP2,2013-01-17 16:13:00,
2013-01-17 08:18:00,38.9,7.6,30.42,West,262,2.0,3.0,27,0.00,,,0.00,WUHU216DAVISVP2,2013-01-17 16:18:00,
2013-01-17 08:23:00,40.0,7.7,30.42,West,262,0.0,3.0,26,0.00,,,0.00,WUHU216DAVISVP2,2013-01-17 16:23:00,
2013-01-17 08:29:00,41.1,7.8,30.42,West,262,0.0,3.0,25,0.00,,,0.00,WUHU216DAVISVP2,2013-01-17 16:29:00,
2013-01-17 08:34:00,42.2,7.8,30.42,West,262,0.0,3.0,24,0.00,,,0.00,WUHU216DAVISVP2,2013-01-17 16:34:00,
2013-01-17 08:39:00,43.7,9.1,30.42,West,262,0.0,2.0,24,0.00,,,0.00,WUHU216DAVISVP2,2013-01-17 16:39:00,
2013-01-17 08:44:00,45.4,8.6,30.42,West,262,0.0,2.0,22,0.00,,,0.00,WUHU216DAVISVP2,2013-01-17 16:44:00,
2013-01-17 08:49:00,47.0,7.9,30.42,NNW,334,5.0,5.0,20,0.00,,,0.00,WUHU216DAVISVP2,2013-01-17 16:49:00,
2013-01-17 08:54:00,48.3,6.7,30.42,NNW,343,6.0,8.0,18,0.00,,,0.00,WUHU216DAVISVP2,2013-01-17 16:54:00,
2013-01-17 09:00:00,49.2,7.4,30.42,North,360,4.0,8.0,18,0.00,,,0.00,WUHU216DAVISVP2,2013-01-17 17:00:00,
2013-01-17 09:05:00,49.6,7.8,30.42,NNE,17,3.0,8.0,18,0.00,,,0.00,WUHU216DAVISVP2,2013-01-17 17:05:00,
2013-01-17 09:10:00,49.9,6.7,30.42,NNE,20,3.0,8.0,17,0.00,,,0.00,WUHU216DAVISVP2,2013-01-17 17:10:00,
2013-01-17 09:15:00,50.5,7.2,30.42,NNE,20,2.0,7.0,17,0.00,,,0.00,WUHU216DAVISVP2,2013-01-17 17:15:00,
2013-01-17 09:20:00,51.0,7.6,30.42,NE,34,4.0,7.0,17,0.00,,,0.00,WUHU216DAVISVP2,2013-01-17 17:20:00,
2013-01-17 09:25:00,51.2,7.8,30.42,ENE,60,3.0,7.0,17,0.00,,,0.00,WUHU216DAVISVP2,2013-01-17 17:25:00,
2013-01-17 09:30:00,50.5,7.2,30.42,ENE,68,4.0,7.0,17,0.00,,,0.00,WUHU216DAVISVP2,2013-01-17 17:30:00,
2013-01-17 09:35:00,49.9,8.0,30.42,ENE,71,3.0,7.0,18,0.00,,,0.00,WUHU216DAVISVP2,2013-01-17 17:35:00,
2013-01-17 09:41:00,49.7,7.8,30.42,East,82,6.0,7.0,18,0.00,,,0.00,WUHU216DAVISVP2,2013-01-17 17:41:00,
2013-01-17 09:46:00,50.0,8.1,30.42,East,84,3.0,7.0,18,0.00,,,0.00,WUHU216DAVISVP2,2013-01-17 17:46:00,
2013-01-17 09:51:00,50.9,8.8,30.42,East,86,1.0,7.0,18,0.00,,,0.00,WUHU216DAVISVP2,2013-01-17 17:51:00,
2013-01-17 09:56:00,51.7,8.2,30.42,East,87,2.0,7.0,17,0.00,,,0.00,WUHU216DAVISVP2,2013-01-17 17:56:00,
2013-01-17 10:01:00,52.2,7.3,30.42,East,87,2.0,7.0,16,0.00,,,0.00,WUHU216DAVISVP2,2013-01-17 18:01:00,
2013-01-17 10:06:00,52.6,7.6,30.42,East,87,2.0,6.0,16,0.00,,,0.00,WUHU216DAVISVP2,2013-01-17 18:06:00,
2013-01-17 10:11:00,52.9,7.8,30.42,East,87,2.0,6.0,16,0.00,,,0.00,WUHU216DAVISVP2,2013-01-17 18:11:00,
2013-01-17 10:16:00,52.9,7.8,30.42,East,87,2.0,5.0,16,0.00,,,0.00,WUHU216DAVISVP2,2013-01-17 18:16:00,
2013-01-17 10:22:00,53.4,8.3,30.42,East,87,3.0,7.0,16,0.00,,,0.00,WUHU216DAVISVP2,2013-01-17 18:22:00,
2013-01-17 10:27:00,53.7,8.5,30.41,East,87,3.0,7.0,16,0.00,,,0.00,WUHU216DAVISVP2,2013-01-17 18:27:00,
2013-01-17 10:32:00,54.1,8.8,30.41,East,87,1.0,7.0,16,0.00,,,0.00,WUHU216DAVISVP2,2013-01-17 18:32:00,
2013-01-17 10:37:00,54.2,8.9,30.41,East,87,1.0,7.0,16,0.00,,,0.00,WUHU216DAVISVP2,2013-01-17 18:37:00,
2013-01-17 10:42:00,54.5,9.1,30.41,East,87,2.0,6.0,16,0.00,,,0.00,WUHU216DAVISVP2,2013-01-17 18:42:00,
2013-01-17 10:47:00,54.9,8.0,30.40,East,87,3.0,6.0,15,0.00,,,0.00,WUHU216DAVISVP2,2013-01-17 18:47:00,
2013-01-17 10:52:00,55.3,8.3,30.40,East,87,1.0,6.0,15,0.00,,,0.00,WUHU216DAVISVP2,2013-01-17 18:52:00,
2013-01-17 10:57:00,56.0,8.9,30.40,East,87,2.0,6.0,15,0.00,,,0.00,WUHU216DAVISVP2,2013-01-17 18:57:00,
2013-01-17 11:02:00,56.4,9.2,30.39,East,87,6.0,7.0,15,0.00,,,0.00,WUHU216DAVISVP2,2013-01-17 19:02:00,
2013-01-17 11:07:00,56.0,8.9,30.39,East,87,2.0,7.0,15,0.00,,,0.00,WUHU216DAVISVP2,2013-01-17 19:07:00,
2013-01-17 11:13:00,56.4,7.7,30.39,East,87,2.0,7.0,14,0.00,,,0.00,WUHU216DAVISVP2,2013-01-17 19:13:00,
2013-01-17 11:18:00,56.6,9.4,30.38,East,90,3.0,7.0,15,0.00,,,0.00,WUHU216DAVISVP2,2013-01-17 19:18:00,
2013-01-17 11:23:00,56.3,7.6,30.38,East,90,3.0,6.0,14,0.00,,,0.00,WUHU216DAVISVP2,2013-01-17 19:23:00,
2013-01-17 11:28:00,56.2,7.5,30.38,East,101,2.0,6.0,14,0.00,,,0.00,WUHU216DAVISVP2,2013-01-17 19:28:00,
2013-01-17 11:34:00,56.7,6.2,30.37,East,101,3.0,6.0,13,0.00,,,0.00,WUHU216DAVISVP2,2013-01-17 19:34:00,
2013-01-17 11:39:00,57.0,6.5,30.37,East,101,2.0,6.0,13,0.00,,,0.00,WUHU216DAVISVP2,2013-01-17 19:39:00,
2013-01-17 11:44:00,57.1,6.6,30.36,East,101,3.0,6.0,13,0.00,,,0.00,WUHU216DAVISVP2,2013-01-17 19:44:00,
2013-01-17 11:49:00,57.2,6.6,30.36,SE,131,5.0,8.0,13,0.00,,,0.00,WUHU216DAVISVP2,2013-01-17 19:49:00,
2013-01-17 11:54:00,56.9,6.4,30.36,SE,127,1.0,8.0,13,0.00,,,0.00,WUHU216DAVISVP2,2013-01-17 19:54:00,
2013-01-17 11:59:00,57.2,6.6,30.35,SE,126,3.0,8.0,13,0.00,,,0.00,WUHU216DAVISVP2,2013-01-17 19:59:00,
2013-01-17 12:04:00,57.4,6.9,30.35,ESE,123,4.0,8.0,13,0.00,,,0.00,WUHU216DAVISVP2,2013-01-17 20:04:00,
2013-01-17 12:09:00,57.5,6.9,30.34,ESE,123,5.0,8.0,13,0.00,,,0.00,WUHU216DAVISVP2,2013-01-17 20:09:00,
2013-01-17 12:14:00,57.8,5.3,30.34,SE,137,7.0,9.0,12,0.00,,,0.00,WUHU216DAVISVP2,2013-01-17 20:14:00,
2013-01-17 12:20:00,57.7,5.2,30.34,SSE,155,6.0,9.0,12,0.00,,,0.00,WUHU216DAVISVP2,2013-01-17 20:20:00,
2013-01-17 12:25:00,57.7,5.3,30.33,SE,132,5.0,11.0,12,0.00,,,0.00,WUHU216DAVISVP2,2013-01-17 20:25:00,
2013-01-17 12:30:00,58.1,5.5,30.33,SSE,157,5.0,11.0,12,0.00,,,0.00,WUHU216DAVISVP2,2013-01-17 20:30:00,
2013-01-17 12:35:00,58.4,5.8,30.33,SE,125,4.0,11.0,12,0.00,,,0.00,WUHU216DAVISVP2,2013-01-17 20:35:00,
2013-01-17 12:40:00,58.5,4.1,30.32,SE,146,7.0,11.0,11,0.00,,,0.00,WUHU216DAVISVP2,2013-01-17 20:40:00,
2013-01-17 12:45:00,58.6,4.1,30.32,South,170,4.0,12.0,11,0.00,,,0.00,WUHU216DAVISVP2,2013-01-17 20:45:00,
2013-01-17 12:50:00,58.9,4.2,30.32,SE,126,6.0,12.0,11,0.00,,,0.00,WUHU216DAVISVP2,2013-01-17 20:50:00,
2013-01-17 12:55:00,59.3,4.5,30.31,SE,138,5.0,12.0,11,0.00,,,0.00,WUHU216DAVISVP2,2013-01-17 20:55:00,
2013-01-17 13:00:00,59.2,4.5,30.31,ESE,115,3.0,13.0,11,0.00,,,0.00,WUHU216DAVISVP2,2013-01-17 21:00:00,
2013-01-17 13:06:00,59.3,4.7,30.31,SE,130,8.0,13.0,11,0.00,,,0.00,WUHU216DAVISVP2,2013-01-17 21:06:00,
2013-01-17 13:11:00,59.5,4.7,30.30,SE,133,9.0,13.0,11,0.00,,,0.00,WUHU216DAVISVP2,2013-01-17 21:11:00,
2013-01-17 13:16:00,59.3,4.5,30.30,SSE,154,6.0,13.0,11,0.00,,,0.00,WUHU216DAVISVP2,2013-01-17 21:16:00,
2013-01-17 13:21:00,59.4,4.6,30.30,SE,132,7.0,12.0,11,0.00,,,0.00,WUHU216DAVISVP2,2013-01-17 21:21:00,
2013-01-17 13:26:00,59.5,4.7,30.30,SE,136,9.0,12.0,11,0.00,,,0.00,WUHU216DAVISVP2,2013-01-17 21:26:00,
2013-01-17 13:31:00,59.6,4.8,30.30,SE,146,5.0,11.0,11,0.00,,,0.00,WUHU216DAVISVP2,2013-01-17 21:31:00,
2013-01-17 13:36:00,60.0,3.0,30.29,SSE,153,5.0,11.0,10,0.00,,,0.00,WUHU216DAVISVP2,2013-01-17 21:36:00,
2013-01-17 13:41:00,60.4,3.3,30.29,SE,143,7.0,13.0,10,0.00,,,0.00,WUHU216DAVISVP2,2013-01-17 21:41:00,
2013-01-17 13:46:00,60.5,3.3,30.29,SSE,155,6.0,13.0,10,0.00,,,0.00,WUHU216DAVISVP2,2013-01-17 21:46:00,
2013-01-17 13:52:00,60.8,3.6,30.29,SSE,157,4.0,13.0,10,0.00,,,0.00,WUHU216DAVISVP2,2013-01-17 21:52:00,
2013-01-17 13:57:00,61.1,3.8,30.29,SSE,147,7.0,13.0,10,0.00,,,0.00,WUHU216DAVISVP2,2013-01-17 21:57:00,
2013-01-17 14:02:00,61.2,1.6,30.29,SSE,148,5.0,12.0,9,0.00,,,0.00,WUHU216DAVISVP2,2013-01-17 22:02:00,
2013-01-17 14:07:00,61.4,1.7,30.29,SSE,149,3.0,9.0,9,0.00,,,0.00,WUHU216DAVISVP2,2013-01-17 22:07:00,
2013-01-17 14:12:00,61.4,1.7,30.28,SE,145,1.0,9.0,9,0.00,,,0.00,WUHU216DAVISVP2,2013-01-17 22:12:00,
2013-01-17 14:17:00,61.6,1.9,30.28,SE,124,6.0,8.0,9,0.00,,,0.00,WUHU216DAVISVP2,2013-01-17 22:17:00,
2013-01-17 14:22:00,61.6,1.9,30.28,ESE,123,4.0,8.0,9,0.00,,,0.00,WUHU216DAVISVP2,2013-01-17 22:22:00,
2013-01-17 14:27:00,61.6,1.9,30.28,SE,134,4.0,8.0,9,0.00,,,0.00,WUHU216DAVISVP2,2013-01-17 22:27:00,
2013-01-17 14:32:00,61.5,1.8,30.28,ESE,121,2.0,8.0,9,0.00,,,0.00,WUHU216DAVISVP2,2013-01-17 22:32:00,
2013-01-17 14:37:00,61.8,2.3,30.28,ESE,121,1.0,8.0,9,0.00,,,0.00,WUHU216DAVISVP2,2013-01-17 22:37:00,
2013-01-17 14:43:00,62.0,2.2,30.28,ESE,119,4.0,8.0,9,0.00,,,0.00,WUHU216DAVISVP2,2013-01-17 22:43:00,
2013-01-17 14:48:00,62.2,2.3,30.28,ESE,119,1.0,8.0,9,0.00,,,0.00,WUHU216DAVISVP2,2013-01-17 22:48:00,
2013-01-17 14:53:00,62.0,2.4,30.28,ESE,119,3.0,7.0,9,0.00,,,0.00,WUHU216DAVISVP2,2013-01-17 22:53:00,
2013-01-17 14:58:00,62.1,2.2,30.28,ESE,119,0.0,7.0,9,0.00,,,0.00,WUHU216DAVISVP2,2013-01-17 22:58:00,
2013-01-17 15:03:00,62.5,0.0,30.27,ESE,119,0.0,5.0,8,0.00,,,0.00,WUHU216DAVISVP2,2013-01-17 23:03:00,
2013-01-17 15:08:00,62.6,0.3,30.27,ESE,119,2.0,5.0,8,0.00,,,0.00,WUHU216DAVISVP2,2013-01-17 23:08:00,
2013-01-17 15:14:00,62.6,0.1,30.27,ESE,119,3.0,4.0,8,0.00,,,0.00,WUHU216DAVISVP2,2013-01-17 23:14:00,
2013-01-17 15:19:00,62.3,-0.1,30.28,ESE,119,4.0,5.0,8,0.00,,,0.00,WUHU216DAVISVP2,2013-01-17 23:19:00,
2013-01-17 15:24:00,62.5,2.8,30.28,WSW,257,4.0,5.0,9,0.00,,,0.00,WUHU216DAVISVP2,2013-01-17 23:24:00,
2013-01-17 15:29:00,62.7,0.4,30.28,WSW,250,3.0,6.0,8,0.00,,,0.00,WUHU216DAVISVP2,2013-01-17 23:29:00,
2013-01-17 15:34:00,62.8,0.2,30.28,WSW,250,0.0,6.0,8,0.00,,,0.00,WUHU216DAVISVP2,2013-01-17 23:34:00,
2013-01-17 15:39:00,63.1,0.5,30.28,WSW,250,2.0,6.0,8,0.00,,,0.00,WUHU216DAVISVP2,2013-01-17 23:39:00,
2013-01-17 15:44:00,63.6,1.1,30.28,WSW,250,3.0,6.0,8,0.00,,,0.00,WUHU216DAVISVP2,2013-01-17 23:44:00,
2013-01-17 15:49:00,63.6,0.8,30.28,WSW,250,4.0,4.0,8,0.00,,,0.00,WUHU216DAVISVP2,2013-01-17 23:49:00,
2013-01-17 15:55:00,62.6,-2.7,30.28,NNW,327,7.0,9.0,7,0.00,,,0.00,WUHU216DAVISVP2,2013-01-17 23:55:00,
2013-01-17 16:00:00,62.1,-3.0,30.28,NNW,329,7.0,9.0,7,0.00,,,0.00,WUHU216DAVISVP2,2013-01-18 00:00:00,
2013-01-17 16:05:00,61.8,-3.3,30.28,North,355,8.0,10.0,7,0.00,,,0.00,WUHU216DAVISVP2,2013-01-18 00:05:00,
2013-01-17 16:10:00,61.5,-0.7,30.28,NNW,340,11.0,12.0,8,0.00,,,0.00,WUHU216DAVISVP2,2013-01-18 00:10:00,
2013-01-17 16:15:00,61.1,-1.0,30.28,NNW,345,5.0,12.0,8,0.00,,,0.00,WUHU216DAVISVP2,2013-01-18 00:15:00,
2013-01-17 16:20:00,60.9,-1.2,30.28,NNW,335,6.0,12.0,8,0.00,,,0.00,WUHU216DAVISVP2,2013-01-18 00:20:00,
2013-01-17 16:25:00,60.5,-1.5,30.28,NNW,344,7.0,12.0,8,0.00,,,0.00,WUHU216DAVISVP2,2013-01-18 00:25:00,
2013-01-17 16:31:00,60.2,-1.7,30.28,NNW,340,8.0,11.0,8,0.00,,,0.00,WUHU216DAVISVP2,2013-01-18 00:31:00,
2013-01-17 16:36:00,59.6,0.4,30.28,NNW,340,8.0,10.0,9,0.00,,,0.00,WUHU216DAVISVP2,2013-01-18 00:36:00,
2013-01-17 16:41:00,59.0,-0.1,30.28,NNW,328,6.0,11.0,9,0.00,,,0.00,WUHU216DAVISVP2,2013-01-18 00:41:00,
2013-01-17 16:46:00,58.2,-0.7,30.28,NNW,333,6.0,11.0,9,0.00,,,0.00,WUHU216DAVISVP2,2013-01-18 00:46:00,
2013-01-17 16:51:00,57.6,-1.2,30.28,NNW,333,6.0,11.0,9,0.00,,,0.00,WUHU216DAVISVP2,2013-01-18 00:51:00,
2013-01-17 16:58:00,56.5,0.3,30.28,NNW,333,2.0,10.0,10,0.00,,,0.00,WUHU216DAVISVP2,2013-01-18 00:58:00,
2013-01-17 17:04:00,55.7,-0.3,30.29,NNW,333,4.0,9.0,10,0.00,,,0.00,WUHU216DAVISVP2,2013-01-18 01:04:00,
2013-01-17 17:09:00,55.2,-0.7,30.29,NNW,333,3.0,7.0,10,0.00,,,0.00,WUHU216DAVISVP2,2013-01-18 01:09:00,
2013-01-17 17:14:00,54.7,1.0,30.29,NNW,333,0.0,6.0,11,0.00,,,0.00,WUHU216DAVISVP2,2013-01-18 01:14:00,
2013-01-17 17:19:00,54.0,0.4,30.29,NNW,333,4.0,5.0,11,0.00,,,0.00,WUHU216DAVISVP2,2013-01-18 01:19:00,
2013-01-17 17:24:00,52.8,-0.5,30.29,NNW,333,1.0,5.0,11,0.00,,,0.00,WUHU216DAVISVP2,2013-01-18 01:24:00,
2013-01-17 17:29:00,51.4,0.3,30.30,NNW,333,4.0,5.0,12,0.00,,,0.00,WUHU216DAVISVP2,2013-01-18 01:29:00,
2013-01-17 17:34:00,51.2,0.1,30.30,NNW,333,2.0,5.0,12,0.00,,,0.00,WUHU216DAVISVP2,2013-01-18 01:34:00,
2013-01-17 17:39:00,51.0,0.0,30.30,NNW,333,2.0,5.0,12,0.00,,,0.00,WUHU216DAVISVP2,2013-01-18 01:39:00,
2013-01-17 17:44:00,50.5,-0.4,30.30,NNW,333,2.0,5.0,12,0.00,,,0.00,WUHU216DAVISVP2,2013-01-18 01:44:00,
2013-01-17 17:49:00,49.9,-0.9,30.30,NNW,335,7.0,7.0,12,0.00,,,0.00,WUHU216DAVISVP2,2013-01-18 01:49:00,
2013-01-17 17:55:00,48.7,-0.1,30.30,North,350,7.0,8.0,13,0.00,,,0.00,WUHU216DAVISVP2,2013-01-18 01:55:00,
2013-01-17 18:00:00,47.8,0.8,30.30,North,350,7.0,8.0,14,0.00,,,0.00,WUHU216DAVISVP2,2013-01-18 02:00:00,
2013-01-17 18:05:00,47.3,0.4,30.30,North,350,4.0,8.0,14,0.00,,,0.00,WUHU216DAVISVP2,2013-01-18 02:05:00,
2013-01-17 18:10:00,47.1,0.2,30.30,North,350,4.0,8.0,14,0.00,,,0.00,WUHU216DAVISVP2,2013-01-18 02:10:00,
2013-01-17 18:15:00,47.2,0.3,30.30,North,350,2.0,8.0,14,0.00,,,0.00,WUHU216DAVISVP2,2013-01-18 02:15:00,
2013-01-17 18:20:00,47.3,0.4,30.30,North,350,4.0,7.0,14,0.00,,,0.00,WUHU216DAVISVP2,2013-01-18 02:20:00,
2013-01-17 18:25:00,47.5,0.6,30.30,North,350,3.0,5.0,14,0.00,,,0.00,WUHU216DAVISVP2,2013-01-18 02:25:00,
2013-01-17 18:31:00,47.5,0.6,30.30,North,355,5.0,8.0,14,0.00,,,0.00,WUHU216DAVISVP2,2013-01-18 02:31:00,
2013-01-17 18:36:00,47.3,0.4,30.30,North,355,2.0,8.0,14,0.00,,,0.00,WUHU216DAVISVP2,2013-01-18 02:36:00,
2013-01-17 18:41:00,46.7,-0.1,30.30,North,355,4.0,8.0,14,0.00,,,0.00,WUHU216DAVISVP2,2013-01-18 02:41:00,
2013-01-17 18:46:00,45.9,0.8,30.30,North,355,4.0,8.0,15,0.00,,,0.00,WUHU216DAVISVP2,2013-01-18 02:46:00,
2013-01-17 18:51:00,45.2,0.2,30.30,North,355,0.0,6.0,15,0.00,,,0.00,WUHU216DAVISVP2,2013-01-18 02:51:00,
2013-01-17 18:56:00,43.8,0.5,30.30,North,355,0.0,6.0,16,0.00,,,0.00,WUHU216DAVISVP2,2013-01-18 02:56:00,
2013-01-17 19:01:00,43.4,0.1,30.30,North,355,0.0,6.0,16,0.00,,,0.00,WUHU216DAVISVP2,2013-01-18 03:01:00,
2013-01-17 19:06:00,43.5,0.2,30.30,North,355,0.0,3.0,16,0.00,,,0.00,WUHU216DAVISVP2,2013-01-18 03:06:00,
2013-01-17 19:12:00,43.4,0.1,30.30,North,355,3.0,3.0,16,0.00,,,0.00,WUHU216DAVISVP2,2013-01-18 03:12:00,
2013-01-17 19:17:00,42.7,-0.4,30.31,North,355,0.0,3.0,16,0.00,,,0.00,WUHU216DAVISVP2,2013-01-18 03:17:00,
2013-01-17 19:22:00,42.4,0.6,30.31,North,355,1.0,3.0,17,0.00,,,0.00,WUHU216DAVISVP2,2013-01-18 03:22:00,
2013-01-17 19:27:00,42.6,0.8,30.30,North,355,2.0,3.0,17,0.00,,,0.00,WUHU216DAVISVP2,2013-01-18 03:27:00,
2013-01-17 19:32:00,42.8,0.9,30.30,North,355,3.0,4.0,17,0.00,,,0.00,WUHU216DAVISVP2,2013-01-18 03:32:00,
2013-01-17 19:37:00,42.9,1.0,30.30,North,355,5.0,6.0,17,0.00,,,0.00,WUHU216DAVISVP2,2013-01-18 03:37:00,
2013-01-17 19:42:00,43.2,1.3,30.31,North,9,4.0,6.0,17,0.00,,,0.00,WUHU216DAVISVP2,2013-01-18 03:42:00,
2013-01-17 19:47:00,43.6,1.6,30.31,NNE,16,3.0,7.0,17,0.00,,,0.00,WUHU216DAVISVP2,2013-01-18 03:47:00,
2013-01-17 19:52:00,43.3,0.0,30.31,NNE,15,5.0,8.0,16,0.00,,,0.00,WUHU216DAVISVP2,2013-01-18 03:52:00,
2013-01-17 19:58:00,41.5,-0.2,30.31,NNE,14,2.0,8.0,17,0.00,,,0.00,WUHU216DAVISVP2,2013-01-18 03:58:00,
2013-01-17 20:03:00,41.0,-0.5,30.31,NNE,13,2.0,8.0,17,0.00,,,0.00,WUHU216DAVISVP2,2013-01-18 04:03:00,
2013-01-17 20:08:00,40.5,0.3,30.31,NNE,12,2.0,8.0,18,0.00,,,0.00,WUHU216DAVISVP2,2013-01-18 04:08:00,
2013-01-17 20:13:00,40.5,0.3,30.31,North,9,4.0,6.0,18,0.00,,,0.00,WUHU216DAVISVP2,2013-01-18 04:13:00,
2013-01-17 20:18:00,41.9,1.4,30.31,NNW,344,5.0,7.0,18,0.00,,,0.00,WUHU216DAVISVP2,2013-01-18 04:18:00,
2013-01-17 20:23:00,41.5,-0.2,30.31,NNW,338,4.0,7.0,17,0.00,,,0.00,WUHU216DAVISVP2,2013-01-18 04:23:00,
2013-01-17 20:29:00,39.9,-0.2,30.31,NNW,338,3.0,7.0,18,0.00,,,0.00,WUHU216DAVISVP2,2013-01-18 04:29:00,
2013-01-17 20:34:00,39.7,0.7,30.31,NNW,336,3.0,7.0,19,0.00,,,0.00,WUHU216DAVISVP2,2013-01-18 04:34:00,
2013-01-17 20:39:00,40.5,1.4,30.31,NNW,336,1.0,7.0,19,0.00,,,0.00,WUHU216DAVISVP2,2013-01-18 04:39:00,
2013-01-17 20:44:00,40.5,0.2,30.32,NNW,336,2.0,5.0,18,0.00,,,0.00,WUHU216DAVISVP2,2013-01-18 04:44:00,
2013-01-17 20:49:00,39.6,-0.5,30.32,NNW,336,2.0,4.0,18,0.00,,,0.00,WUHU216DAVISVP2,2013-01-18 04:49:00,
2013-01-17 20:54:00,38.8,-1.1,30.31,NNW,336,4.0,5.0,18,0.00,,,0.00,WUHU216DAVISVP2,2013-01-18 04:54:00,
2013-01-17 20:59:00,37.9,-0.8,30.32,NNW,336,2.0,5.0,19,0.00,,,0.00,WUHU216DAVISVP2,2013-01-18 04:59:00,
2013-01-17 21:04:00,38.4,0.7,30.32,NNW,336,2.0,5.0,20,0.00,,,0.00,WUHU216DAVISVP2,2013-01-18 05:04:00,
2013-01-17 21:10:00,39.0,1.2,30.32,NNW,336,0.0,5.0,20,0.00,,,0.00,WUHU216DAVISVP2,2013-01-18 05:10:00,
2013-01-17 21:15:00,39.3,-0.7,30.32,NNW,336,1.0,5.0,18,0.00,,,0.00,WUHU216DAVISVP2,2013-01-18 05:15:00,
2013-01-17 21:20:00,38.1,0.5,30.32,NNW,336,4.0,5.0,20,0.00,,,0.00,WUHU216DAVISVP2,2013-01-18 05:20:00,
2013-01-17 21:25:00,37.3,-0.2,30.32,NNW,336,2.0,5.0,20,0.00,,,0.00,WUHU216DAVISVP2,2013-01-18 05:25:00,
2013-01-17 21:30:00,37.8,0.2,30.32,NNW,336,1.0,5.0,20,0.00,,,0.00,WUHU216DAVISVP2,2013-01-18 05:30:00,
2013-01-17 21:35:00,36.8,-1.7,30.32,NNW,336,3.0,5.0,19,0.00,,,0.00,WUHU216DAVISVP2,2013-01-18 05:35:00,
2013-01-17 21:40:00,36.2,-0.1,30.32,NNW,336,0.0,4.0,21,0.00,,,0.00,WUHU216DAVISVP2,2013-01-18 05:40:00,
2013-01-17 21:45:00,36.8,0.4,30.32,NNW,336,3.0,5.0,21,0.00,,,0.00,WUHU216DAVISVP2,2013-01-18 05:45:00,
2013-01-17 21:50:00,37.0,0.6,30.31,NNW,336,3.0,5.0,21,0.00,,,0.00,WUHU216DAVISVP2,2013-01-18 05:50:00,
2013-01-17 21:56:00,37.7,0.2,30.31,NNW,336,5.0,5.0,20,0.00,,,0.00,WUHU216DAVISVP2,2013-01-18 05:56:00,
2013-01-17 22:01:00,37.7,0.2,30.31,NNW,334,5.0,6.0,20,0.00,,,0.00,WUHU216DAVISVP2,2013-01-18 06:01:00,
2013-01-17 22:06:00,37.5,1.0,30.31,NNW,329,3.0,6.0,21,0.00,,,0.00,WUHU216DAVISVP2,2013-01-18 06:06:00,
2013-01-17 22:11:00,37.4,-0.1,30.31,NNW,329,5.0,6.0,20,0.00,,,0.00,WUHU216DAVISVP2,2013-01-18 06:11:00,
2013-01-17 22:16:00,37.9,-0.8,30.31,NNW,329,1.0,6.0,19,0.00,,,0.00,WUHU216DAVISVP2,2013-01-18 06:16:00,
2013-01-17 22:21:00,36.7,-1.8,30.31,NNW,329,1.0,6.0,19,0.00,,,0.00,WUHU216DAVISVP2,2013-01-18 06:21:00,
2013-01-17 22:26:00,36.9,1.5,30.31,NNW,329,2.0,6.0,22,0.00,,,0.00,WUHU216DAVISVP2,2013-01-18 06:26:00,
2013-01-17 22:31:00,38.1,1.5,30.31,NNW,329,1.0,4.0,21,0.00,,,0.00,WUHU216DAVISVP2,2013-01-18 06:31:00,
2013-01-17 22:37:00,38.8,1.1,30.31,NNW,329,2.0,5.0,20,0.00,,,0.00,WUHU216DAVISVP2,2013-01-18 06:37:00,
2013-01-17 22:42:00,39.6,0.7,30.31,NNW,329,1.0,5.0,19,0.00,,,0.00,WUHU216DAVISVP2,2013-01-18 06:42:00,
2013-01-17 22:47:00,38.6,-1.3,30.31,NNW,329,2.0,5.0,18,0.00,,,0.00,WUHU216DAVISVP2,2013-01-18 06:47:00,
2013-01-17 22:52:00,37.1,-1.4,30.31,NNW,329,0.0,5.0,19,0.00,,,0.00,WUHU216DAVISVP2,2013-01-18 06:52:00,
2013-01-17 22:57:00,35.3,-0.8,30.31,NNW,329,4.0,4.0,21,0.00,,,0.00,WUHU216DAVISVP2,2013-01-18 06:57:00,
2013-01-17 23:02:00,34.5,-1.5,30.31,NNW,329,1.0,4.0,21,0.00,,,0.00,WUHU216DAVISVP2,2013-01-18 07:02:00,
2013-01-17 23:07:00,34.1,-1.8,30.31,NNW,329,3.0,4.0,21,0.00,,,0.00,WUHU216DAVISVP2,2013-01-18 07:07:00,
2013-01-17 23:12:00,32.5,-2.2,30.31,NNW,329,2.0,5.0,22,0.00,,,0.00,WUHU216DAVISVP2,2013-01-18 07:12:00,
2013-01-17 23:17:00,31.4,-2.3,30.31,NNW,329,3.0,6.0,23,0.00,,,0.00,WUHU216DAVISVP2,2013-01-18 07:17:00,
2013-01-17 23:23:00,30.8,-1.9,30.31,NNW,329,0.0,6.0,24,0.00,,,0.00,WUHU216DAVISVP2,2013-01-18 07:23:00,
2013-01-17 23:28:00,31.0,-0.9,30.31,NNW,329,2.0,6.0,25,0.00,,,0.00,WUHU216DAVISVP2,2013-01-18 07:28:00,
2013-01-17 23:33:00,32.1,-0.8,30.31,NNW,329,5.0,6.0,24,0.00,,,0.00,WUHU216DAVISVP2,2013-01-18 07:33:00,
2013-01-17 23:38:00,33.3,-0.6,30.31,NNW,329,5.0,6.0,23,0.00,,,0.00,WUHU216DAVISVP2,2013-01-18 07:38:00,
2013-01-17 23:43:00,34.7,0.6,30.31,NNW,329,6.0,6.0,23,0.00,,,0.00,WUHU216DAVISVP2,2013-01-18 07:43:00,
2013-01-17 23:48:00,34.7,-1.3,30.31,NNW,329,5.0,8.0,21,0.00,,,0.00,WUHU216DAVISVP2,2013-01-18 07:48:00,
2013-01-17 23:54:00,33.9,-1.1,30.31,NNW,329,3.0,8.0,22,0.00,,,0.00,WUHU216DAVISVP2,2013-01-18 07:54:00,
2013-01-17 23:59:00,35.1,0.9,30.31,NNW,329,1.0,8.0,23,0.00,,,0.00,WUHU216DAVISVP2,2013-01-18 07:59:00,